Big Bear Station Historical Data
Daily Summary for January 13, 2019 Units:  Metric    English   Both
Next Day »
Daily Weekly Monthly Yearly Custom
  High: Low: Average:
Temperature: 3.8 °C -5.6 °C -1.6 °C
Dew Point: 0.1 °C -6.2 °C -2.9 °C
Humidity: 97% 74% 91%
Wind Speed: 6km/h 0km/h 0.5km/h
Wind Gust: -1607.7km/h - -
Wind- - West
Pressure: 794 hPa 792.3 hPa -
Precipitation: 1.78 mm    
Historical Graphs
 
 
Tabular Data for January 13, 2019
Time Temperature Dew Point Pressure Wind Wind Speed Wind Gust Humidity Rainfall Rate (Hourly)
00:11 -3.7 °C -4.1 °C 792.3 hPa Calm   -1607.7 km/h 97% 0 mm
00:26 -3.4 °C -3.8 °C 792.7 hPa Calm   -1607.7 km/h 97% 0 mm
00:42 -3 °C -3.4 °C 792.7 hPa Calm   -1607.7 km/h 97% 0 mm
00:57 -2.8 °C -3.2 °C 792.7 hPa Calm   -1607.7 km/h 97% 0 mm
01:12 -2.7 °C -3.1 °C 792.7 hPa Calm   -1607.7 km/h 97% 0 mm
01:27 -2.5 °C -3.1 °C 793 hPa Calm   -1607.7 km/h 96% 0 mm
01:42 -2.4 °C -3.1 °C 793 hPa Calm   -1607.7 km/h 95% 0 mm
01:58 -2.3 °C -2.9 °C 793 hPa Calm   -1607.7 km/h 95% 0 mm
02:13 -2.3 °C -2.9 °C 793.3 hPa Calm   -1607.7 km/h 95% 0 mm
02:28 -2.4 °C -3.1 °C 793 hPa Calm   -1607.7 km/h 95% 0 mm
02:43 -2.5 °C -3.2 °C 793 hPa Calm   -1607.7 km/h 95% 0 mm
02:59 -2.7 °C -3.4 °C 793 hPa Calm   -1607.7 km/h 95% 0 mm
03:14 -3.2 °C -3.9 °C 793 hPa Calm   -1607.7 km/h 95% 0 mm
03:29 -3.7 °C -4.4 °C 793 hPa Calm   -1607.7 km/h 95% 0 mm
03:44 -3.9 °C -4.4 °C 793 hPa Calm   -1607.7 km/h 96% 0 mm
03:59 -4.2 °C -4.8 °C 793 hPa Calm   -1607.7 km/h 96% 0 mm
04:15 -4.3 °C -4.7 °C 792.7 hPa Calm   -1607.7 km/h 97% 0 mm
04:30 -4.5 °C -4.9 °C 792.7 hPa Calm   -1607.7 km/h 97% 0 mm
04:45 -4.8 °C -5.2 °C 792.7 hPa Calm   -1607.7 km/h 97% 0 mm
05:00 -4.9 °C -5.3 °C 793 hPa Calm   -1607.7 km/h 97% 0 mm
05:15 -4.8 °C -5.2 °C 793 hPa Calm   -1607.7 km/h 97% 0 mm
05:31 -5 °C -5.4 °C 793 hPa Calm   -1607.7 km/h 97% 0 mm
05:46 -5 °C -5.4 °C 793 hPa Calm   -1607.7 km/h 97% 0 mm
06:01 -5.2 °C -5.6 °C 793 hPa Calm   -1607.7 km/h 97% 0 mm
06:16 -5.4 °C -5.8 °C 793 hPa Calm   -1607.7 km/h 97% 0 mm
06:31 -5.5 °C -6.1 °C 793 hPa Calm   -1607.7 km/h 96% 0 mm
06:47 -5.6 °C -6.2 °C 793 hPa Calm   -1607.7 km/h 96% 0 mm
07:02 -5.4 °C -5.9 °C 793 hPa Calm   -1607.7 km/h 96% 0 mm
07:18 -5.5 °C -6.1 °C 793 hPa Calm   -1607.7 km/h 96% 0 mm
07:34 -5.4 °C -5.9 °C 793 hPa Calm   -1607.7 km/h 96% 0 mm
07:49 -5.5 °C -6.1 °C 793 hPa Calm   -1607.7 km/h 96% 0 mm
08:04 -5.5 °C -6.1 °C 793 hPa Calm   -1607.7 km/h 96% 0 mm
08:19 -5.2 °C -5.8 °C 793.3 hPa Calm   -1607.7 km/h 96% 0 mm
08:34 -5.1 °C -5.8 °C 793.3 hPa Calm   -1607.7 km/h 95% 0 mm
08:50 -4.8 °C -5.4 °C 793.3 hPa Calm   -1607.7 km/h 95% 0 mm
09:05 -4.4 °C -5.1 °C 793.7 hPa Calm   -1607.7 km/h 95% 0 mm
09:20 -3.5 °C -4.1 °C 794 hPa Calm   -1607.7 km/h 96% 0 mm
09:35 -2.7 °C -3.4 °C 794 hPa Calm   -1607.7 km/h 95% 0 mm
09:50 -1.8 °C -2.8 °C 794 hPa Calm   -1607.7 km/h 93% 0 mm
10:06 -0.6 °C -2.2 °C 794 hPa Calm   -1607.7 km/h 89% 0 mm
10:21 -0.2 °C -1.8 °C 794 hPa WNW 5.1 km/h -1607.7 km/h 89% 0 mm
10:36 0.6 °C -1.6 °C 794 hPa Calm   -1607.7 km/h 85% 0 mm
10:51 1.3 °C -1.6 °C 793.7 hPa NW 3.5 km/h -1607.7 km/h 81% 0 mm
11:06 1.6 °C -1.4 °C 793.7 hPa North 2.7 km/h -1607.7 km/h 80% 0 mm
11:22 1.6 °C -1.3 °C 793.3 hPa NW 4.3 km/h -1607.7 km/h 81% 0 mm
11:37 2.5 °C -1.1 °C 793 hPa Calm   -1607.7 km/h 77% 0 mm
11:52 2.2 °C -1.2 °C 793 hPa Calm   -1607.7 km/h 78% 0 mm
12:07 2.5 °C -0.8 °C 792.7 hPa NNW 3.5 km/h -1607.7 km/h 79% 0 mm
12:22 2.6 °C -0.5 °C 792.7 hPa Calm   -1607.7 km/h 80% 0 mm
12:38 2.7 °C -0.6 °C 792.7 hPa Calm   -1607.7 km/h 79% 0 mm
12:53 3.8 °C -0.4 °C 792.3 hPa WNW 4.3 km/h -1607.7 km/h 74% 0 mm
13:08 3.8 °C -0.2 °C 792.3 hPa Calm   -1607.7 km/h 75% 0 mm
13:23 3.8 °C 0.1 °C 792.3 hPa Calm   -1607.7 km/h 77% 0 mm
13:39 3.5 °C -0.3 °C 792.3 hPa NNE 3.5 km/h -1607.7 km/h 76% 0 mm
13:54 3.8 °C -0.2 °C 792.3 hPa Calm   -1607.7 km/h 75% 0 mm
14:09 3.8 °C -0.1 °C 792.3 hPa NW 4.3 km/h -1607.7 km/h 76% 0 mm
14:24 2.9 °C -0.4 °C 792.3 hPa SSE 6 km/h -1607.7 km/h 79% 0 mm
14:39 2.8 °C -0.2 °C 792.3 hPa NNW 4.3 km/h -1607.7 km/h 81% 0 mm
14:55 2.7 °C -0.1 °C 792.3 hPa WNW 2.7 km/h -1607.7 km/h 82% 0 mm
15:10 2.6 °C -0.2 °C 792.3 hPa Calm   -1607.7 km/h 82% 0 mm
15:25 2.6 °C -0.2 °C 792.3 hPa Calm   -1607.7 km/h 82% 0 mm
15:40 2 °C -0.6 °C 792.3 hPa Calm   -1607.7 km/h 83% 0 mm
15:55 1.5 °C -0.9 °C 792.3 hPa Calm   -1607.7 km/h 84% 0 mm
16:11 1.3 °C -0.9 °C 792.7 hPa Calm   -1607.7 km/h 85% 0 mm
16:26 0.9 °C -1.2 °C 792.7 hPa Calm   -1607.7 km/h 86% 0 mm
16:41 0.8 °C -1.2 °C 792.7 hPa Calm   -1607.7 km/h 87% 0 mm
16:56 0.5 °C -1.1 °C 792.7 hPa Calm   -1607.7 km/h 89% 0 mm
17:11 0.3 °C -1.3 °C 792.7 hPa Calm   -1607.7 km/h 89% 0 mm
17:27 0.1 °C -1.3 °C 793 hPa Calm   -1607.7 km/h 90% 0 mm
17:42 0 °C -1.4 °C 793 hPa Calm   -1607.7 km/h 90% 0 mm
17:57 -0.1 °C -1.6 °C 793 hPa Calm   -1607.7 km/h 90% 0 mm
18:12 -0.2 °C -1.7 °C 793 hPa Calm   -1607.7 km/h 90% 0 mm
18:27 -0.2 °C -1.7 °C 793.7 hPa Calm   -1607.7 km/h 90% 0 mm
18:43 -0.3 °C -1.9 °C 793.3 hPa Calm   -1607.7 km/h 89% 0 mm
18:58 -0.4 °C -2 °C 793.3 hPa Calm   -1607.7 km/h 89% 0 mm
19:13 -0.5 °C -1.9 °C 793.3 hPa Calm   -1607.7 km/h 90% 0 mm
19:28 -0.5 °C -1.9 °C 793.3 hPa Calm   -1607.7 km/h 90% 0 mm
19:43 -0.8 °C -2.1 °C 793.3 hPa Calm   -1607.7 km/h 91% 0 mm
19:59 -0.9 °C -2.2 °C 793 hPa Calm   -1607.7 km/h 91% 0 mm
20:14 -1.3 °C -2.4 °C 793 hPa Calm   -1607.7 km/h 92% 0 mm
20:29 -1.7 °C -2.7 °C 793 hPa Calm   -1607.7 km/h 93% 0 mm
20:44 -2 °C -2.8 °C 793 hPa Calm   -1607.7 km/h 94% 0 mm
21:00 -2.3 °C -2.9 °C 793 hPa Calm   -1607.7 km/h 95% 0 mm
21:15 -2.4 °C -2.9 °C 793.3 hPa Calm   -1607.7 km/h 96% 0 mm
21:30 -2.4 °C -2.9 °C 793.3 hPa Calm   -1607.7 km/h 96% 0 mm
21:45 -3 °C -3.6 °C 793.3 hPa Calm   -1607.7 km/h 96% 0 mm
22:00 -3.1 °C -3.7 °C 793.3 hPa Calm   -1607.7 km/h 96% 0 mm
22:16 -3.4 °C -3.9 °C 793.7 hPa Calm   -1607.7 km/h 96% 0 mm
22:31 -3.5 °C -4.1 °C 793.7 hPa Calm   -1607.7 km/h 96% 0 mm
22:46 -3.8 °C -4.3 °C 793.7 hPa Calm   -1607.7 km/h 96% 0 mm
23:01 -3.9 °C -4.4 °C 793.3 hPa Calm   -1607.7 km/h 96% 0 mm
23:16 -4 °C -4.4 °C 793.3 hPa Calm   -1607.7 km/h 97% 0 mm
23:32 -4.2 °C -4.6 °C 793.3 hPa Calm   -1607.7 km/h 97% 0 mm
23:47 -4.4 °C -4.8 °C 793.3 hPa Calm   -1607.7 km/h 97% 0 mm
Big Bear CA Weather